sensor_id;sensor_type;location;lat;lon;timestamp;P1;durP1;ratioP1;P2;durP2;ratioP2
77740;SDS011;66919;51.006;4.630;2024-02-14T00:00:44;6.03;;;2.95;;
77740;SDS011;66919;51.006;4.630;2024-02-14T00:03:10;5.03;;;3.28;;
77740;SDS011;66919;51.006;4.630;2024-02-14T00:05:35;6.72;;;3.20;;
77740;SDS011;66919;51.006;4.630;2024-02-14T00:08:01;3.20;;;2.85;;
77740;SDS011;66919;51.006;4.630;2024-02-14T00:10:28;3.75;;;2.85;;
77740;SDS011;66919;51.006;4.630;2024-02-14T00:12:54;6.22;;;3.13;;
77740;SDS011;66919;51.006;4.630;2024-02-14T00:15:20;5.18;;;3.17;;
77740;SDS011;66919;51.006;4.630;2024-02-14T00:17:46;5.15;;;2.90;;
77740;SDS011;66919;51.006;4.630;2024-02-14T00:20:11;5.10;;;2.75;;
77740;SDS011;66919;51.006;4.630;2024-02-14T00:22:37;4.00;;;3.00;;
77740;SDS011;66919;51.006;4.630;2024-02-14T00:25:04;4.20;;;3.17;;
77740;SDS011;66919;51.006;4.630;2024-02-14T00:27:30;4.60;;;3.20;;
77740;SDS011;66919;51.006;4.630;2024-02-14T00:29:55;5.78;;;3.55;;
77740;SDS011;66919;51.006;4.630;2024-02-14T00:32:21;6.75;;;3.15;;
77740;SDS011;66919;51.006;4.630;2024-02-14T00:34:47;4.20;;;3.15;;
77740;SDS011;66919;51.006;4.630;2024-02-14T00:37:14;4.65;;;2.97;;
77740;SDS011;66919;51.006;4.630;2024-02-14T00:39:40;4.85;;;3.50;;
77740;SDS011;66919;51.006;4.630;2024-02-14T00:42:05;7.43;;;3.17;;
77740;SDS011;66919;51.006;4.630;2024-02-14T00:44:31;6.65;;;2.90;;
77740;SDS011;66919;51.006;4.630;2024-02-14T00:46:57;6.60;;;3.70;;
77740;SDS011;66919;51.006;4.630;2024-02-14T00:49:27;7.20;;;2.92;;
77740;SDS011;66919;51.006;4.630;2024-02-14T00:51:52;5.32;;;3.47;;
77740;SDS011;66919;51.006;4.630;2024-02-14T00:54:18;4.07;;;3.05;;
77740;SDS011;66919;51.006;4.630;2024-02-14T00:56:44;3.28;;;2.70;;
77740;SDS011;66919;51.006;4.630;2024-02-14T00:59:10;3.97;;;3.15;;
77740;SDS011;66919;51.006;4.630;2024-02-14T01:01:35;3.70;;;2.72;;
77740;SDS011;66919;51.006;4.630;2024-02-14T01:04:01;6.47;;;3.55;;
77740;SDS011;66919;51.006;4.630;2024-02-14T01:06:27;7.32;;;3.58;;
77740;SDS011;66919;51.006;4.630;2024-02-14T01:08:55;5.38;;;3.28;;
77740;SDS011;66919;51.006;4.630;2024-02-14T01:11:21;5.90;;;3.10;;
77740;SDS011;66919;51.006;4.630;2024-02-14T01:13:46;5.38;;;2.85;;
77740;SDS011;66919;51.006;4.630;2024-02-14T01:16:12;4.90;;;3.42;;
77740;SDS011;66919;51.006;4.630;2024-02-14T01:18:37;8.90;;;3.75;;
77740;SDS011;66919;51.006;4.630;2024-02-14T01:21:03;5.75;;;3.10;;
77740;SDS011;66919;51.006;4.630;2024-02-14T01:23:29;7.10;;;2.97;;
77740;SDS011;66919;51.006;4.630;2024-02-14T01:25:54;10.75;;;3.63;;
77740;SDS011;66919;51.006;4.630;2024-02-14T01:28:20;5.95;;;3.22;;
77740;SDS011;66919;51.006;4.630;2024-02-14T01:30:46;6.60;;;3.75;;
77740;SDS011;66919;51.006;4.630;2024-02-14T01:33:12;4.47;;;3.63;;
77740;SDS011;66919;51.006;4.630;2024-02-14T01:35:37;6.47;;;3.67;;
77740;SDS011;66919;51.006;4.630;2024-02-14T01:38:03;5.50;;;3.53;;
77740;SDS011;66919;51.006;4.630;2024-02-14T01:40:29;6.78;;;3.58;;
77740;SDS011;66919;51.006;4.630;2024-02-14T01:42:55;8.50;;;3.67;;
77740;SDS011;66919;51.006;4.630;2024-02-14T01:45:20;6.95;;;3.88;;
77740;SDS011;66919;51.006;4.630;2024-02-14T01:47:46;7.07;;;3.78;;
77740;SDS011;66919;51.006;4.630;2024-02-14T01:50:15;5.85;;;3.38;;
77740;SDS011;66919;51.006;4.630;2024-02-14T01:52:41;6.70;;;3.88;;
77740;SDS011;66919;51.006;4.630;2024-02-14T01:55:08;5.72;;;3.97;;
77740;SDS011;66919;51.006;4.630;2024-02-14T01:57:34;6.93;;;3.13;;
77740;SDS011;66919;51.006;4.630;2024-02-14T02:00:01;6.20;;;3.88;;
77740;SDS011;66919;51.006;4.630;2024-02-14T02:02:33;6.55;;;3.88;;
77740;SDS011;66919;51.006;4.630;2024-02-14T02:05:01;8.88;;;4.05;;
77740;SDS011;66919;51.006;4.630;2024-02-14T02:07:27;5.70;;;4.20;;
77740;SDS011;66919;51.006;4.630;2024-02-14T02:09:53;9.40;;;4.68;;
77740;SDS011;66919;51.006;4.630;2024-02-14T02:12:18;7.28;;;4.28;;
77740;SDS011;66919;51.006;4.630;2024-02-14T02:14:44;6.90;;;3.58;;
77740;SDS011;66919;51.006;4.630;2024-02-14T02:17:10;5.85;;;4.00;;
77740;SDS011;66919;51.006;4.630;2024-02-14T02:19:37;8.38;;;4.32;;
77740;SDS011;66919;51.006;4.630;2024-02-14T02:22:03;6.28;;;4.30;;
77740;SDS011;66919;51.006;4.630;2024-02-14T02:24:29;6.20;;;4.97;;
77740;SDS011;66919;51.006;4.630;2024-02-14T02:26:55;9.75;;;4.75;;
77740;SDS011;66919;51.006;4.630;2024-02-14T02:29:21;6.90;;;4.22;;
77740;SDS011;66919;51.006;4.630;2024-02-14T02:31:47;7.55;;;4.28;;
77740;SDS011;66919;51.006;4.630;2024-02-14T02:34:13;9.13;;;3.63;;
77740;SDS011;66919;51.006;4.630;2024-02-14T02:36:39;6.50;;;4.00;;
77740;SDS011;66919;51.006;4.630;2024-02-14T02:39:06;6.65;;;4.20;;
77740;SDS011;66919;51.006;4.630;2024-02-14T02:41:32;6.00;;;3.65;;
77740;SDS011;66919;51.006;4.630;2024-02-14T02:43:58;7.25;;;4.13;;
77740;SDS011;66919;51.006;4.630;2024-02-14T02:46:24;8.18;;;4.55;;
77740;SDS011;66919;51.006;4.630;2024-02-14T02:48:50;7.88;;;3.80;;
77740;SDS011;66919;51.006;4.630;2024-02-14T02:51:16;10.77;;;4.43;;
77740;SDS011;66919;51.006;4.630;2024-02-14T02:53:42;6.55;;;4.50;;
77740;SDS011;66919;51.006;4.630;2024-02-14T02:56:08;8.00;;;4.68;;
77740;SDS011;66919;51.006;4.630;2024-02-14T02:58:34;5.18;;;3.83;;
77740;SDS011;66919;51.006;4.630;2024-02-14T03:00:59;6.60;;;4.57;;
77740;SDS011;66919;51.006;4.630;2024-02-14T03:03:25;7.53;;;4.90;;
77740;SDS011;66919;51.006;4.630;2024-02-14T03:05:53;8.48;;;5.40;;
77740;SDS011;66919;51.006;4.630;2024-02-14T03:08:20;10.98;;;6.38;;
77740;SDS011;66919;51.006;4.630;2024-02-14T03:10:46;9.18;;;6.18;;
77740;SDS011;66919;51.006;4.630;2024-02-14T03:13:12;11.50;;;6.95;;
77740;SDS011;66919;51.006;4.630;2024-02-14T03:15:38;8.55;;;5.80;;
77740;SDS011;66919;51.006;4.630;2024-02-14T03:18:04;12.60;;;6.30;;
77740;SDS011;66919;51.006;4.630;2024-02-14T03:20:34;9.20;;;6.38;;
77740;SDS011;66919;51.006;4.630;2024-02-14T03:23:03;12.05;;;7.15;;
77740;SDS011;66919;51.006;4.630;2024-02-14T03:25:29;10.38;;;6.10;;
77740;SDS011;66919;51.006;4.630;2024-02-14T03:27:54;11.07;;;5.78;;
77740;SDS011;66919;51.006;4.630;2024-02-14T03:30:22;9.82;;;6.40;;
77740;SDS011;66919;51.006;4.630;2024-02-14T03:32:47;9.15;;;7.15;;
77740;SDS011;66919;51.006;4.630;2024-02-14T03:35:17;13.20;;;6.60;;
77740;SDS011;66919;51.006;4.630;2024-02-14T03:37:45;9.80;;;6.32;;
77740;SDS011;66919;51.006;4.630;2024-02-14T03:40:13;12.00;;;7.90;;
77740;SDS011;66919;51.006;4.630;2024-02-14T03:42:39;16.52;;;7.53;;
77740;SDS011;66919;51.006;4.630;2024-02-14T03:45:05;11.70;;;8.70;;
77740;SDS011;66919;51.006;4.630;2024-02-14T03:47:32;17.48;;;8.90;;
77740;SDS011;66919;51.006;4.630;2024-02-14T03:49:58;14.57;;;9.30;;
77740;SDS011;66919;51.006;4.630;2024-02-14T03:52:24;14.65;;;8.23;;
77740;SDS011;66919;51.006;4.630;2024-02-14T03:54:49;17.88;;;10.05;;
77740;SDS011;66919;51.006;4.630;2024-02-14T03:57:15;12.82;;;8.57;;
77740;SDS011;66919;51.006;4.630;2024-02-14T03:59:43;13.60;;;8.68;;
77740;SDS011;66919;51.006;4.630;2024-02-14T04:02:09;14.50;;;8.80;;
77740;SDS011;66919;51.006;4.630;2024-02-14T04:04:38;14.82;;;7.93;;
77740;SDS011;66919;51.006;4.630;2024-02-14T04:07:06;12.55;;;7.90;;
77740;SDS011;66919;51.006;4.630;2024-02-14T04:09:35;11.20;;;8.27;;
77740;SDS011;66919;51.006;4.630;2024-02-14T04:12:01;13.45;;;8.07;;
77740;SDS011;66919;51.006;4.630;2024-02-14T04:14:27;12.82;;;7.82;;
77740;SDS011;66919;51.006;4.630;2024-02-14T04:16:52;13.48;;;7.65;;
77740;SDS011;66919;51.006;4.630;2024-02-14T04:19:19;11.25;;;8.20;;
77740;SDS011;66919;51.006;4.630;2024-02-14T04:21:45;14.50;;;7.88;;
77740;SDS011;66919;51.006;4.630;2024-02-14T04:24:11;14.68;;;8.38;;
77740;SDS011;66919;51.006;4.630;2024-02-14T04:26:37;15.07;;;8.23;;
77740;SDS011;66919;51.006;4.630;2024-02-14T04:29:02;14.68;;;8.15;;
77740;SDS011;66919;51.006;4.630;2024-02-14T04:31:28;14.93;;;7.95;;
77740;SDS011;66919;51.006;4.630;2024-02-14T04:33:56;14.05;;;8.52;;
77740;SDS011;66919;51.006;4.630;2024-02-14T04:36:22;14.38;;;8.18;;
77740;SDS011;66919;51.006;4.630;2024-02-14T04:38:48;10.85;;;7.57;;
77740;SDS011;66919;51.006;4.630;2024-02-14T04:41:15;9.50;;;7.28;;
77740;SDS011;66919;51.006;4.630;2024-02-14T04:43:41;12.48;;;7.25;;
77740;SDS011;66919;51.006;4.630;2024-02-14T04:46:06;12.45;;;7.47;;
77740;SDS011;66919;51.006;4.630;2024-02-14T04:48:33;10.38;;;7.45;;
77740;SDS011;66919;51.006;4.630;2024-02-14T04:51:00;9.93;;;6.70;;
77740;SDS011;66919;51.006;4.630;2024-02-14T04:53:26;12.40;;;7.38;;
77740;SDS011;66919;51.006;4.630;2024-02-14T04:55:52;11.88;;;7.60;;
77740;SDS011;66919;51.006;4.630;2024-02-14T04:58:18;10.25;;;6.45;;
77740;SDS011;66919;51.006;4.630;2024-02-14T05:00:45;12.65;;;6.65;;
77740;SDS011;66919;51.006;4.630;2024-02-14T05:03:10;12.82;;;7.95;;
77740;SDS011;66919;51.006;4.630;2024-02-14T05:05:36;12.20;;;7.38;;
77740;SDS011;66919;51.006;4.630;2024-02-14T05:08:03;11.60;;;7.38;;
77740;SDS011;66919;51.006;4.630;2024-02-14T05:10:29;14.27;;;7.88;;
77740;SDS011;66919;51.006;4.630;2024-02-14T05:12:55;10.63;;;7.78;;
77740;SDS011;66919;51.006;4.630;2024-02-14T05:15:20;12.02;;;7.97;;
77740;SDS011;66919;51.006;4.630;2024-02-14T05:17:46;11.30;;;7.30;;
77740;SDS011;66919;51.006;4.630;2024-02-14T05:20:11;11.93;;;8.13;;
77740;SDS011;66919;51.006;4.630;2024-02-14T05:22:37;14.70;;;8.90;;
77740;SDS011;66919;51.006;4.630;2024-02-14T05:25:06;13.55;;;8.38;;
77740;SDS011;66919;51.006;4.630;2024-02-14T05:27:35;18.42;;;8.93;;
77740;SDS011;66919;51.006;4.630;2024-02-14T05:30:05;14.73;;;8.52;;
77740;SDS011;66919;51.006;4.630;2024-02-14T05:32:31;14.57;;;8.68;;
77740;SDS011;66919;51.006;4.630;2024-02-14T05:34:58;17.48;;;8.10;;
77740;SDS011;66919;51.006;4.630;2024-02-14T05:37:24;11.90;;;7.80;;
77740;SDS011;66919;51.006;4.630;2024-02-14T05:39:52;12.73;;;8.73;;
77740;SDS011;66919;51.006;4.630;2024-02-14T05:42:18;9.90;;;7.60;;
77740;SDS011;66919;51.006;4.630;2024-02-14T05:44:44;10.93;;;7.20;;
77740;SDS011;66919;51.006;4.630;2024-02-14T05:47:09;13.43;;;7.38;;
77740;SDS011;66919;51.006;4.630;2024-02-14T05:49:37;14.65;;;7.25;;
77740;SDS011;66919;51.006;4.630;2024-02-14T05:52:08;13.93;;;7.30;;
77740;SDS011;66919;51.006;4.630;2024-02-14T05:54:34;8.65;;;6.82;;
77740;SDS011;66919;51.006;4.630;2024-02-14T05:57:00;12.68;;;7.13;;
77740;SDS011;66919;51.006;4.630;2024-02-14T05:59:29;16.75;;;7.78;;
77740;SDS011;66919;51.006;4.630;2024-02-14T06:01:55;13.43;;;6.90;;
77740;SDS011;66919;51.006;4.630;2024-02-14T06:04:21;10.13;;;7.05;;
77740;SDS011;66919;51.006;4.630;2024-02-14T06:06:46;11.30;;;6.97;;
77740;SDS011;66919;51.006;4.630;2024-02-14T06:09:12;10.65;;;6.85;;
77740;SDS011;66919;51.006;4.630;2024-02-14T06:11:38;12.27;;;7.32;;
77740;SDS011;66919;51.006;4.630;2024-02-14T06:14:07;12.85;;;6.95;;
77740;SDS011;66919;51.006;4.630;2024-02-14T06:16:37;12.20;;;7.82;;
77740;SDS011;66919;51.006;4.630;2024-02-14T06:19:03;14.30;;;7.22;;
77740;SDS011;66919;51.006;4.630;2024-02-14T06:21:29;13.13;;;7.35;;
77740;SDS011;66919;51.006;4.630;2024-02-14T06:23:55;14.88;;;8.20;;
77740;SDS011;66919;51.006;4.630;2024-02-14T06:26:23;13.98;;;7.20;;
77740;SDS011;66919;51.006;4.630;2024-02-14T06:28:49;14.45;;;7.32;;
77740;SDS011;66919;51.006;4.630;2024-02-14T06:31:19;12.25;;;7.05;;
77740;SDS011;66919;51.006;4.630;2024-02-14T06:33:48;14.30;;;7.53;;
77740;SDS011;66919;51.006;4.630;2024-02-14T06:36:13;13.90;;;7.35;;
77740;SDS011;66919;51.006;4.630;2024-02-14T06:38:39;13.75;;;7.03;;
77740;SDS011;66919;51.006;4.630;2024-02-14T06:41:05;11.07;;;6.95;;
77740;SDS011;66919;51.006;4.630;2024-02-14T06:43:31;13.35;;;7.20;;
77740;SDS011;66919;51.006;4.630;2024-02-14T06:45:57;12.82;;;6.75;;
77740;SDS011;66919;51.006;4.630;2024-02-14T06:48:22;12.95;;;7.80;;
77740;SDS011;66919;51.006;4.630;2024-02-14T06:50:50;16.70;;;8.43;;
77740;SDS011;66919;51.006;4.630;2024-02-14T06:53:16;10.82;;;6.82;;
77740;SDS011;66919;51.006;4.630;2024-02-14T06:55:42;14.77;;;7.40;;
77740;SDS011;66919;51.006;4.630;2024-02-14T06:58:08;14.20;;;8.00;;
77740;SDS011;66919;51.006;4.630;2024-02-14T07:00:33;12.65;;;7.05;;
77740;SDS011;66919;51.006;4.630;2024-02-14T07:02:59;10.38;;;7.60;;
77740;SDS011;66919;51.006;4.630;2024-02-14T07:05:25;14.18;;;7.90;;
77740;SDS011;66919;51.006;4.630;2024-02-14T07:07:52;14.38;;;7.85;;
77740;SDS011;66919;51.006;4.630;2024-02-14T07:10:18;17.70;;;7.28;;
77740;SDS011;66919;51.006;4.630;2024-02-14T07:12:44;9.93;;;7.15;;
77740;SDS011;66919;51.006;4.630;2024-02-14T07:15:09;12.23;;;8.13;;
77740;SDS011;66919;51.006;4.630;2024-02-14T07:17:36;14.15;;;7.63;;
77740;SDS011;66919;51.006;4.630;2024-02-14T07:20:03;11.90;;;6.63;;
77740;SDS011;66919;51.006;4.630;2024-02-14T07:22:29;17.38;;;7.05;;
77740;SDS011;66919;51.006;4.630;2024-02-14T07:24:55;14.50;;;7.57;;
77740;SDS011;66919;51.006;4.630;2024-02-14T07:27:21;14.30;;;7.72;;
77740;SDS011;66919;51.006;4.630;2024-02-14T07:29:47;14.48;;;6.85;;
77740;SDS011;66919;51.006;4.630;2024-02-14T07:32:12;11.38;;;7.63;;
77740;SDS011;66919;51.006;4.630;2024-02-14T07:34:38;17.95;;;8.55;;
77740;SDS011;66919;51.006;4.630;2024-02-14T07:37:07;13.88;;;7.85;;
77740;SDS011;66919;51.006;4.630;2024-02-14T07:39:32;16.15;;;7.70;;
77740;SDS011;66919;51.006;4.630;2024-02-14T07:42:00;11.93;;;7.28;;
77740;SDS011;66919;51.006;4.630;2024-02-14T07:44:26;16.45;;;7.15;;
77740;SDS011;66919;51.006;4.630;2024-02-14T07:46:51;13.85;;;7.40;;
77740;SDS011;66919;51.006;4.630;2024-02-14T07:49:18;14.13;;;7.40;;
77740;SDS011;66919;51.006;4.630;2024-02-14T07:51:44;12.93;;;7.35;;
77740;SDS011;66919;51.006;4.630;2024-02-14T07:54:10;15.35;;;7.63;;
77740;SDS011;66919;51.006;4.630;2024-02-14T07:56:35;12.10;;;6.25;;
77740;SDS011;66919;51.006;4.630;2024-02-14T07:59:01;13.68;;;6.38;;
77740;SDS011;66919;51.006;4.630;2024-02-14T08:01:27;11.75;;;6.90;;
77740;SDS011;66919;51.006;4.630;2024-02-14T08:03:53;13.60;;;7.15;;
77740;SDS011;66919;51.006;4.630;2024-02-14T08:06:19;11.57;;;6.45;;
77740;SDS011;66919;51.006;4.630;2024-02-14T08:08:45;14.23;;;6.97;;
77740;SDS011;66919;51.006;4.630;2024-02-14T08:11:11;11.43;;;7.30;;
77740;SDS011;66919;51.006;4.630;2024-02-14T08:13:36;14.98;;;7.18;;
77740;SDS011;66919;51.006;4.630;2024-02-14T08:16:04;11.05;;;7.20;;
77740;SDS011;66919;51.006;4.630;2024-02-14T08:18:31;9.60;;;6.25;;
77740;SDS011;66919;51.006;4.630;2024-02-14T08:20:57;11.50;;;6.85;;
77740;SDS011;66919;51.006;4.630;2024-02-14T08:23:23;13.10;;;7.45;;
77740;SDS011;66919;51.006;4.630;2024-02-14T08:25:48;13.10;;;7.53;;
77740;SDS011;66919;51.006;4.630;2024-02-14T08:28:14;13.27;;;8.02;;
77740;SDS011;66919;51.006;4.630;2024-02-14T08:30:42;15.15;;;8.50;;
77740;SDS011;66919;51.006;4.630;2024-02-14T08:33:08;15.32;;;9.02;;
77740;SDS011;66919;51.006;4.630;2024-02-14T08:35:35;16.42;;;8.77;;
77740;SDS011;66919;51.006;4.630;2024-02-14T08:38:01;15.55;;;8.30;;
77740;SDS011;66919;51.006;4.630;2024-02-14T08:40:27;14.32;;;9.07;;
77740;SDS011;66919;51.006;4.630;2024-02-14T08:42:52;12.07;;;7.80;;
77740;SDS011;66919;51.006;4.630;2024-02-14T08:45:18;16.33;;;9.30;;
77740;SDS011;66919;51.006;4.630;2024-02-14T08:47:44;15.02;;;8.43;;
77740;SDS011;66919;51.006;4.630;2024-02-14T08:50:10;15.75;;;8.48;;
77740;SDS011;66919;51.006;4.630;2024-02-14T08:52:35;13.60;;;8.10;;
77740;SDS011;66919;51.006;4.630;2024-02-14T08:55:03;14.77;;;8.45;;
77740;SDS011;66919;51.006;4.630;2024-02-14T08:57:29;17.00;;;9.50;;
77740;SDS011;66919;51.006;4.630;2024-02-14T08:59:56;13.05;;;9.07;;
77740;SDS011;66919;51.006;4.630;2024-02-14T09:02:22;15.27;;;9.52;;
77740;SDS011;66919;51.006;4.630;2024-02-14T09:04:47;17.92;;;8.90;;
77740;SDS011;66919;51.006;4.630;2024-02-14T09:07:14;13.60;;;8.23;;
77740;SDS011;66919;51.006;4.630;2024-02-14T09:09:41;16.25;;;8.85;;
77740;SDS011;66919;51.006;4.630;2024-02-14T09:12:06;14.45;;;8.43;;
77740;SDS011;66919;51.006;4.630;2024-02-14T09:14:32;11.23;;;7.97;;
77740;SDS011;66919;51.006;4.630;2024-02-14T09:16:58;14.27;;;9.23;;
77740;SDS011;66919;51.006;4.630;2024-02-14T09:19:24;13.05;;;7.63;;
77740;SDS011;66919;51.006;4.630;2024-02-14T09:21:50;16.75;;;8.55;;
77740;SDS011;66919;51.006;4.630;2024-02-14T09:24:16;16.00;;;8.73;;
77740;SDS011;66919;51.006;4.630;2024-02-14T09:26:41;12.55;;;8.32;;
77740;SDS011;66919;51.006;4.630;2024-02-14T09:29:08;13.10;;;9.15;;
77740;SDS011;66919;51.006;4.630;2024-02-14T09:31:35;12.77;;;8.48;;
77740;SDS011;66919;51.006;4.630;2024-02-14T09:34:02;14.77;;;9.30;;
77740;SDS011;66919;51.006;4.630;2024-02-14T09:36:28;14.88;;;8.95;;
77740;SDS011;66919;51.006;4.630;2024-02-14T09:38:54;14.85;;;8.75;;
77740;SDS011;66919;51.006;4.630;2024-02-14T09:41:29;14.23;;;8.88;;
77740;SDS011;66919;51.006;4.630;2024-02-14T09:43:59;14.27;;;9.45;;
77740;SDS011;66919;51.006;4.630;2024-02-14T09:46:25;18.67;;;9.10;;
77740;SDS011;66919;51.006;4.630;2024-02-14T09:48:52;15.23;;;8.63;;
77740;SDS011;66919;51.006;4.630;2024-02-14T09:51:17;13.50;;;9.93;;
77740;SDS011;66919;51.006;4.630;2024-02-14T09:53:43;14.98;;;9.95;;
77740;SDS011;66919;51.006;4.630;2024-02-14T09:56:10;14.02;;;9.95;;
77740;SDS011;66919;51.006;4.630;2024-02-14T09:58:37;16.23;;;9.27;;
77740;SDS011;66919;51.006;4.630;2024-02-14T10:01:03;15.55;;;8.93;;
77740;SDS011;66919;51.006;4.630;2024-02-14T10:03:30;12.25;;;9.27;;
77740;SDS011;66919;51.006;4.630;2024-02-14T10:05:55;15.57;;;10.35;;
77740;SDS011;66919;51.006;4.630;2024-02-14T10:08:21;14.18;;;8.07;;
77740;SDS011;66919;51.006;4.630;2024-02-14T10:10:48;14.63;;;9.82;;
77740;SDS011;66919;51.006;4.630;2024-02-14T10:13:15;16.67;;;10.05;;
77740;SDS011;66919;51.006;4.630;2024-02-14T10:15:41;14.48;;;9.93;;
77740;SDS011;66919;51.006;4.630;2024-02-14T10:18:07;15.25;;;9.27;;
77740;SDS011;66919;51.006;4.630;2024-02-14T10:20:34;13.10;;;8.50;;
77740;SDS011;66919;51.006;4.630;2024-02-14T10:23:05;11.10;;;8.10;;
77740;SDS011;66919;51.006;4.630;2024-02-14T10:25:36;11.80;;;8.68;;
77740;SDS011;66919;51.006;4.630;2024-02-14T10:28:04;9.93;;;7.53;;
77740;SDS011;66919;51.006;4.630;2024-02-14T10:30:34;10.88;;;8.02;;
77740;SDS011;66919;51.006;4.630;2024-02-14T10:33:02;10.20;;;7.47;;
77740;SDS011;66919;51.006;4.630;2024-02-14T10:35:28;11.13;;;7.13;;
77740;SDS011;66919;51.006;4.630;2024-02-14T10:37:56;8.10;;;6.40;;
77740;SDS011;66919;51.006;4.630;2024-02-14T10:40:26;9.15;;;5.88;;
77740;SDS011;66919;51.006;4.630;2024-02-14T10:42:53;7.95;;;6.07;;
77740;SDS011;66919;51.006;4.630;2024-02-14T10:45:19;7.97;;;6.10;;
77740;SDS011;66919;51.006;4.630;2024-02-14T10:47:45;8.57;;;6.13;;
77740;SDS011;66919;51.006;4.630;2024-02-14T10:50:14;9.82;;;5.70;;
77740;SDS011;66919;51.006;4.630;2024-02-14T10:52:41;7.50;;;4.97;;
77740;SDS011;66919;51.006;4.630;2024-02-14T10:55:07;7.13;;;4.70;;
77740;SDS011;66919;51.006;4.630;2024-02-14T10:57:34;4.20;;;3.80;;
77740;SDS011;66919;51.006;4.630;2024-02-14T11:00:01;5.15;;;3.90;;
77740;SDS011;66919;51.006;4.630;2024-02-14T11:02:30;4.88;;;3.72;;
77740;SDS011;66919;51.006;4.630;2024-02-14T11:04:57;4.78;;;3.55;;
77740;SDS011;66919;51.006;4.630;2024-02-14T11:07:23;3.63;;;3.30;;
77740;SDS011;66919;51.006;4.630;2024-02-14T11:10:12;6.05;;;3.97;;
77740;SDS011;66919;51.006;4.630;2024-02-14T11:12:38;4.03;;;3.15;;
77740;SDS011;66919;51.006;4.630;2024-02-14T11:17:44;5.75;;;3.08;;
77740;SDS011;66919;51.006;4.630;2024-02-14T11:22:53;3.83;;;2.83;;
77740;SDS011;66919;51.006;4.630;2024-02-14T11:25:38;3.28;;;2.67;;
77740;SDS011;66919;51.006;4.630;2024-02-14T11:28:14;3.78;;;2.75;;
77740;SDS011;66919;51.006;4.630;2024-02-14T11:30:41;3.50;;;2.72;;
77740;SDS011;66919;51.006;4.630;2024-02-14T11:33:18;4.35;;;2.47;;
77740;SDS011;66919;51.006;4.630;2024-02-14T11:35:46;6.18;;;2.97;;
77740;SDS011;66919;51.006;4.630;2024-02-14T11:38:15;4.00;;;2.45;;
77740;SDS011;66919;51.006;4.630;2024-02-14T11:40:40;4.47;;;2.75;;
77740;SDS011;66919;51.006;4.630;2024-02-14T11:43:16;5.60;;;2.90;;
77740;SDS011;66919;51.006;4.630;2024-02-14T11:45:43;2.75;;;2.47;;
77740;SDS011;66919;51.006;4.630;2024-02-14T11:48:11;4.55;;;3.20;;
77740;SDS011;66919;51.006;4.630;2024-02-14T11:50:38;4.38;;;3.00;;
77740;SDS011;66919;51.006;4.630;2024-02-14T11:53:05;3.33;;;2.92;;
77740;SDS011;66919;51.006;4.630;2024-02-14T11:55:33;4.97;;;3.65;;
77740;SDS011;66919;51.006;4.630;2024-02-14T11:58:01;3.97;;;3.45;;
77740;SDS011;66919;51.006;4.630;2024-02-14T12:00:27;4.93;;;3.45;;
77740;SDS011;66919;51.006;4.630;2024-02-14T12:02:53;6.35;;;3.67;;
77740;SDS011;66919;51.006;4.630;2024-02-14T12:05:19;8.73;;;4.00;;
77740;SDS011;66919;51.006;4.630;2024-02-14T12:07:44;7.05;;;4.10;;
77740;SDS011;66919;51.006;4.630;2024-02-14T12:10:11;4.85;;;3.38;;
77740;SDS011;66919;51.006;4.630;2024-02-14T12:12:37;8.20;;;3.85;;
77740;SDS011;66919;51.006;4.630;2024-02-14T12:15:03;5.05;;;3.65;;
77740;SDS011;66919;51.006;4.630;2024-02-14T12:17:31;5.05;;;3.28;;
77740;SDS011;66919;51.006;4.630;2024-02-14T12:20:09;6.15;;;4.03;;
77740;SDS011;66919;51.006;4.630;2024-02-14T12:22:36;5.55;;;4.47;;
77740;SDS011;66919;51.006;4.630;2024-02-14T12:25:02;7.78;;;4.18;;
77740;SDS011;66919;51.006;4.630;2024-02-14T12:27:32;10.13;;;4.05;;
77740;SDS011;66919;51.006;4.630;2024-02-14T12:30:02;10.23;;;4.90;;
77740;SDS011;66919;51.006;4.630;2024-02-14T12:32:29;7.60;;;4.20;;
77740;SDS011;66919;51.006;4.630;2024-02-14T12:34:58;8.13;;;3.83;;
77740;SDS011;66919;51.006;4.630;2024-02-14T12:37:24;12.20;;;4.45;;
77740;SDS011;66919;51.006;4.630;2024-02-14T12:39:50;7.97;;;4.80;;
77740;SDS011;66919;51.006;4.630;2024-02-14T12:42:16;10.35;;;5.45;;
77740;SDS011;66919;51.006;4.630;2024-02-14T12:44:43;7.95;;;4.47;;
77740;SDS011;66919;51.006;4.630;2024-02-14T12:47:09;11.48;;;4.45;;
77740;SDS011;66919;51.006;4.630;2024-02-14T12:49:35;8.98;;;4.25;;
77740;SDS011;66919;51.006;4.630;2024-02-14T12:52:01;8.43;;;4.93;;
77740;SDS011;66919;51.006;4.630;2024-02-14T12:54:27;11.30;;;4.38;;
77740;SDS011;66919;51.006;4.630;2024-02-14T12:56:52;11.20;;;5.07;;
77740;SDS011;66919;51.006;4.630;2024-02-14T12:59:18;8.07;;;4.65;;
77740;SDS011;66919;51.006;4.630;2024-02-14T13:01:44;9.20;;;4.05;;
77740;SDS011;66919;51.006;4.630;2024-02-14T13:04:11;8.25;;;4.72;;
77740;SDS011;66919;51.006;4.630;2024-02-14T13:06:37;10.60;;;5.03;;
77740;SDS011;66919;51.006;4.630;2024-02-14T13:09:02;8.93;;;4.63;;
77740;SDS011;66919;51.006;4.630;2024-02-14T13:11:30;9.52;;;5.95;;
77740;SDS011;66919;51.006;4.630;2024-02-14T13:13:57;7.35;;;5.10;;
77740;SDS011;66919;51.006;4.630;2024-02-14T13:16:22;9.45;;;5.53;;
77740;SDS011;66919;51.006;4.630;2024-02-14T13:18:48;11.15;;;5.22;;
77740;SDS011;66919;51.006;4.630;2024-02-14T13:21:14;7.38;;;4.68;;
77740;SDS011;66919;51.006;4.630;2024-02-14T13:23:41;9.45;;;6.72;;
77740;SDS011;66919;51.006;4.630;2024-02-14T13:26:07;9.93;;;4.38;;
77740;SDS011;66919;51.006;4.630;2024-02-14T13:28:33;10.73;;;5.88;;
77740;SDS011;66919;51.006;4.630;2024-02-14T13:30:59;9.52;;;5.75;;
77740;SDS011;66919;51.006;4.630;2024-02-14T13:33:25;12.45;;;6.25;;
77740;SDS011;66919;51.006;4.630;2024-02-14T13:35:51;10.23;;;6.22;;
77740;SDS011;66919;51.006;4.630;2024-02-14T13:38:17;8.40;;;6.10;;
77740;SDS011;66919;51.006;4.630;2024-02-14T13:40:43;10.07;;;6.13;;
77740;SDS011;66919;51.006;4.630;2024-02-14T13:43:08;11.32;;;5.50;;
77740;SDS011;66919;51.006;4.630;2024-02-14T13:45:42;9.18;;;4.88;;
77740;SDS011;66919;51.006;4.630;2024-02-14T13:48:09;11.68;;;4.10;;
77740;SDS011;66919;51.006;4.630;2024-02-14T13:50:35;8.05;;;4.47;;
77740;SDS011;66919;51.006;4.630;2024-02-14T13:53:01;4.68;;;4.13;;
77740;SDS011;66919;51.006;4.630;2024-02-14T13:55:28;6.22;;;3.65;;
77740;SDS011;66919;51.006;4.630;2024-02-14T13:57:54;9.18;;;4.00;;
77740;SDS011;66919;51.006;4.630;2024-02-14T14:00:21;6.75;;;4.10;;
77740;SDS011;66919;51.006;4.630;2024-02-14T14:02:46;7.40;;;3.90;;
77740;SDS011;66919;51.006;4.630;2024-02-14T14:05:12;7.45;;;4.40;;
77740;SDS011;66919;51.006;4.630;2024-02-14T14:07:38;8.15;;;4.43;;
77740;SDS011;66919;51.006;4.630;2024-02-14T14:10:05;7.32;;;3.58;;
77740;SDS011;66919;51.006;4.630;2024-02-14T14:12:31;6.07;;;2.60;;
77740;SDS011;66919;51.006;4.630;2024-02-14T14:14:57;4.28;;;2.95;;
77740;SDS011;66919;51.006;4.630;2024-02-14T14:17:23;3.88;;;3.47;;
77740;SDS011;66919;51.006;4.630;2024-02-14T14:19:49;7.03;;;4.38;;
77740;SDS011;66919;51.006;4.630;2024-02-14T14:22:15;6.85;;;4.03;;
77740;SDS011;66919;51.006;4.630;2024-02-14T14:24:41;7.60;;;3.55;;
77740;SDS011;66919;51.006;4.630;2024-02-14T14:27:07;5.28;;;3.25;;
77740;SDS011;66919;51.006;4.630;2024-02-14T14:29:38;4.70;;;3.33;;
77740;SDS011;66919;51.006;4.630;2024-02-14T14:32:04;5.38;;;3.38;;
77740;SDS011;66919;51.006;4.630;2024-02-14T14:34:30;7.90;;;4.07;;
77740;SDS011;66919;51.006;4.630;2024-02-14T14:36:57;5.35;;;3.05;;
77740;SDS011;66919;51.006;4.630;2024-02-14T14:39:22;8.80;;;3.42;;
77740;SDS011;66919;51.006;4.630;2024-02-14T14:41:48;8.52;;;3.45;;